sensor_id;sensor_type;location;lat;lon;timestamp;P1;durP1;ratioP1;P2;durP2;ratioP2
45540;SDS011;31265;49.680;8.608;2024-01-06T00:01:32;2.85;;;0.90;;
45540;SDS011;31265;49.680;8.608;2024-01-06T00:04:03;3.78;;;1.10;;
45540;SDS011;31265;49.680;8.608;2024-01-06T00:06:33;2.80;;;1.40;;
45540;SDS011;31265;49.680;8.608;2024-01-06T00:11:30;2.60;;;1.08;;
45540;SDS011;31265;49.680;8.608;2024-01-06T00:13:59;5.20;;;1.40;;
45540;SDS011;31265;49.680;8.608;2024-01-06T00:16:27;4.03;;;1.05;;
45540;SDS011;31265;49.680;8.608;2024-01-06T00:18:56;4.70;;;1.27;;
45540;SDS011;31265;49.680;8.608;2024-01-06T00:21:26;2.15;;;1.15;;
45540;SDS011;31265;49.680;8.608;2024-01-06T00:23:56;5.72;;;1.10;;
45540;SDS011;31265;49.680;8.608;2024-01-06T00:26:25;3.95;;;0.93;;
45540;SDS011;31265;49.680;8.608;2024-01-06T00:28:53;4.50;;;1.23;;
45540;SDS011;31265;49.680;8.608;2024-01-06T00:31:22;3.00;;;1.13;;
45540;SDS011;31265;49.680;8.608;2024-01-06T00:33:50;10.55;;;1.38;;
45540;SDS011;31265;49.680;8.608;2024-01-06T00:36:19;5.67;;;1.70;;
45540;SDS011;31265;49.680;8.608;2024-01-06T00:38:49;3.00;;;1.42;;
45540;SDS011;31265;49.680;8.608;2024-01-06T00:41:18;2.72;;;1.10;;
45540;SDS011;31265;49.680;8.608;2024-01-06T00:43:46;11.02;;;2.00;;
45540;SDS011;31265;49.680;8.608;2024-01-06T00:46:15;6.45;;;1.40;;
45540;SDS011;31265;49.680;8.608;2024-01-06T00:48:44;3.88;;;1.40;;
45540;SDS011;31265;49.680;8.608;2024-01-06T00:51:13;4.28;;;1.27;;
45540;SDS011;31265;49.680;8.608;2024-01-06T00:53:42;2.65;;;1.00;;
45540;SDS011;31265;49.680;8.608;2024-01-06T00:56:10;5.75;;;1.40;;
45540;SDS011;31265;49.680;8.608;2024-01-06T00:58:40;4.03;;;1.23;;
45540;SDS011;31265;49.680;8.608;2024-01-06T01:01:08;3.50;;;1.50;;
45540;SDS011;31265;49.680;8.608;2024-01-06T01:03:37;4.07;;;1.05;;
45540;SDS011;31265;49.680;8.608;2024-01-06T01:06:05;2.58;;;1.27;;
45540;SDS011;31265;49.680;8.608;2024-01-06T01:08:35;2.97;;;1.42;;
45540;SDS011;31265;49.680;8.608;2024-01-06T01:11:03;4.93;;;1.50;;
45540;SDS011;31265;49.680;8.608;2024-01-06T01:13:33;3.10;;;1.30;;
45540;SDS011;31265;49.680;8.608;2024-01-06T01:16:03;5.07;;;1.57;;
45540;SDS011;31265;49.680;8.608;2024-01-06T01:18:32;2.90;;;1.00;;
45540;SDS011;31265;49.680;8.608;2024-01-06T01:21:00;6.72;;;1.65;;
45540;SDS011;31265;49.680;8.608;2024-01-06T01:23:29;7.60;;;1.42;;
45540;SDS011;31265;49.680;8.608;2024-01-06T01:25:58;7.37;;;1.33;;
45540;SDS011;31265;49.680;8.608;2024-01-06T01:28:29;5.38;;;1.50;;
45540;SDS011;31265;49.680;8.608;2024-01-06T01:30:58;4.30;;;1.38;;
45540;SDS011;31265;49.680;8.608;2024-01-06T01:33:29;3.60;;;1.27;;
45540;SDS011;31265;49.680;8.608;2024-01-06T01:35:57;6.53;;;1.55;;
45540;SDS011;31265;49.680;8.608;2024-01-06T01:38:29;7.32;;;1.65;;
45540;SDS011;31265;49.680;8.608;2024-01-06T01:40:58;4.07;;;1.45;;
45540;SDS011;31265;49.680;8.608;2024-01-06T01:43:27;4.45;;;1.40;;
45540;SDS011;31265;49.680;8.608;2024-01-06T01:45:57;3.92;;;1.48;;
45540;SDS011;31265;49.680;8.608;2024-01-06T01:48:28;3.65;;;1.70;;
45540;SDS011;31265;49.680;8.608;2024-01-06T01:50:58;3.25;;;1.48;;
45540;SDS011;31265;49.680;8.608;2024-01-06T01:53:26;6.67;;;1.00;;
45540;SDS011;31265;49.680;8.608;2024-01-06T01:55:55;2.88;;;0.80;;
45540;SDS011;31265;49.680;8.608;2024-01-06T01:58:24;3.33;;;1.40;;
45540;SDS011;31265;49.680;8.608;2024-01-06T02:00:53;1.75;;;1.08;;
45540;SDS011;31265;49.680;8.608;2024-01-06T02:03:23;2.78;;;1.27;;
45540;SDS011;31265;49.680;8.608;2024-01-06T02:05:54;5.75;;;0.75;;
45540;SDS011;31265;49.680;8.608;2024-01-06T02:08:23;3.38;;;1.13;;
45540;SDS011;31265;49.680;8.608;2024-01-06T02:10:53;2.58;;;0.98;;
45540;SDS011;31265;49.680;8.608;2024-01-06T02:13:22;3.45;;;1.02;;
45540;SDS011;31265;49.680;8.608;2024-01-06T02:15:51;1.50;;;0.80;;
45540;SDS011;31265;49.680;8.608;2024-01-06T02:18:20;6.05;;;1.10;;
45540;SDS011;31265;49.680;8.608;2024-01-06T02:20:48;2.70;;;0.95;;
45540;SDS011;31265;49.680;8.608;2024-01-06T02:23:20;2.20;;;1.35;;
45540;SDS011;31265;49.680;8.608;2024-01-06T02:25:49;2.92;;;1.13;;
45540;SDS011;31265;49.680;8.608;2024-01-06T02:28:18;2.35;;;1.15;;
45540;SDS011;31265;49.680;8.608;2024-01-06T02:30:48;3.72;;;1.30;;
45540;SDS011;31265;49.680;8.608;2024-01-06T02:33:18;3.50;;;0.95;;
45540;SDS011;31265;49.680;8.608;2024-01-06T02:35:51;3.78;;;1.15;;
45540;SDS011;31265;49.680;8.608;2024-01-06T02:38:22;2.45;;;0.60;;
45540;SDS011;31265;49.680;8.608;2024-01-06T02:43:18;4.80;;;1.08;;
45540;SDS011;31265;49.680;8.608;2024-01-06T02:45:47;4.40;;;1.05;;
45540;SDS011;31265;49.680;8.608;2024-01-06T02:48:16;2.30;;;1.00;;
45540;SDS011;31265;49.680;8.608;2024-01-06T02:50:44;7.50;;;1.20;;
45540;SDS011;31265;49.680;8.608;2024-01-06T02:53:13;4.25;;;1.00;;
45540;SDS011;31265;49.680;8.608;2024-01-06T02:55:43;3.13;;;0.75;;
45540;SDS011;31265;49.680;8.608;2024-01-06T02:58:12;4.20;;;1.42;;
45540;SDS011;31265;49.680;8.608;2024-01-06T03:00:40;9.10;;;1.52;;
45540;SDS011;31265;49.680;8.608;2024-01-06T03:03:09;3.72;;;1.48;;
45540;SDS011;31265;49.680;8.608;2024-01-06T03:05:37;6.40;;;1.33;;
45540;SDS011;31265;49.680;8.608;2024-01-06T03:08:06;2.92;;;1.00;;
45540;SDS011;31265;49.680;8.608;2024-01-06T03:10:34;5.18;;;0.90;;
45540;SDS011;31265;49.680;8.608;2024-01-06T03:13:04;7.53;;;1.65;;
45540;SDS011;31265;49.680;8.608;2024-01-06T03:15:33;3.08;;;1.08;;
45540;SDS011;31265;49.680;8.608;2024-01-06T03:18:05;3.80;;;1.13;;
45540;SDS011;31265;49.680;8.608;2024-01-06T03:20:34;6.55;;;0.95;;
45540;SDS011;31265;49.680;8.608;2024-01-06T03:23:03;3.85;;;1.00;;
45540;SDS011;31265;49.680;8.608;2024-01-06T03:25:31;4.18;;;1.25;;
45540;SDS011;31265;49.680;8.608;2024-01-06T03:28:00;2.22;;;1.00;;
45540;SDS011;31265;49.680;8.608;2024-01-06T03:30:32;2.53;;;1.02;;
45540;SDS011;31265;49.680;8.608;2024-01-06T03:33:01;2.42;;;0.77;;
45540;SDS011;31265;49.680;8.608;2024-01-06T03:35:30;2.65;;;1.42;;
45540;SDS011;31265;49.680;8.608;2024-01-06T03:37:58;8.10;;;1.27;;
45540;SDS011;31265;49.680;8.608;2024-01-06T03:40:27;3.20;;;1.25;;
45540;SDS011;31265;49.680;8.608;2024-01-06T03:42:58;2.47;;;0.95;;
45540;SDS011;31265;49.680;8.608;2024-01-06T03:45:28;7.20;;;1.60;;
45540;SDS011;31265;49.680;8.608;2024-01-06T03:47:58;2.63;;;1.00;;
45540;SDS011;31265;49.680;8.608;2024-01-06T03:50:27;8.68;;;1.02;;
45540;SDS011;31265;49.680;8.608;2024-01-06T03:52:55;6.38;;;1.80;;
45540;SDS011;31265;49.680;8.608;2024-01-06T03:55:24;3.45;;;1.67;;
45540;SDS011;31265;49.680;8.608;2024-01-06T03:57:55;1.90;;;1.17;;
45540;SDS011;31265;49.680;8.608;2024-01-06T04:00:27;2.13;;;1.23;;
45540;SDS011;31265;49.680;8.608;2024-01-06T04:02:55;1.95;;;0.80;;
45540;SDS011;31265;49.680;8.608;2024-01-06T04:05:25;1.85;;;0.90;;
45540;SDS011;31265;49.680;8.608;2024-01-06T04:10:24;3.90;;;1.92;;
45540;SDS011;31265;49.680;8.608;2024-01-06T04:12:53;4.63;;;1.60;;
45540;SDS011;31265;49.680;8.608;2024-01-06T04:15:21;5.68;;;2.05;;
45540;SDS011;31265;49.680;8.608;2024-01-06T04:17:49;6.47;;;1.58;;
45540;SDS011;31265;49.680;8.608;2024-01-06T04:20:19;3.60;;;1.60;;
45540;SDS011;31265;49.680;8.608;2024-01-06T04:22:49;5.45;;;1.42;;
45540;SDS011;31265;49.680;8.608;2024-01-06T04:25:18;4.47;;;1.98;;
45540;SDS011;31265;49.680;8.608;2024-01-06T04:27:46;7.07;;;1.30;;
45540;SDS011;31265;49.680;8.608;2024-01-06T04:30:17;6.68;;;1.48;;
45540;SDS011;31265;49.680;8.608;2024-01-06T04:32:47;4.13;;;1.40;;
45540;SDS011;31265;49.680;8.608;2024-01-06T04:35:17;3.85;;;0.90;;
45540;SDS011;31265;49.680;8.608;2024-01-06T04:37:50;7.82;;;2.83;;
45540;SDS011;31265;49.680;8.608;2024-01-06T04:42:47;1.92;;;1.13;;
45540;SDS011;31265;49.680;8.608;2024-01-06T04:45:16;6.27;;;2.10;;
45540;SDS011;31265;49.680;8.608;2024-01-06T04:47:46;5.75;;;1.63;;
45540;SDS011;31265;49.680;8.608;2024-01-06T04:50:15;3.15;;;1.00;;
45540;SDS011;31265;49.680;8.608;2024-01-06T04:52:44;4.83;;;1.30;;
45540;SDS011;31265;49.680;8.608;2024-01-06T04:55:14;5.10;;;1.37;;
45540;SDS011;31265;49.680;8.608;2024-01-06T05:00:11;4.60;;;1.65;;
45540;SDS011;31265;49.680;8.608;2024-01-06T05:02:40;7.50;;;1.80;;
45540;SDS011;31265;49.680;8.608;2024-01-06T05:05:09;3.20;;;1.52;;
45540;SDS011;31265;49.680;8.608;2024-01-06T05:07:37;4.85;;;1.73;;
45540;SDS011;31265;49.680;8.608;2024-01-06T05:10:06;3.50;;;1.33;;
45540;SDS011;31265;49.680;8.608;2024-01-06T05:12:37;2.72;;;1.10;;
45540;SDS011;31265;49.680;8.608;2024-01-06T05:15:06;5.22;;;1.55;;
45540;SDS011;31265;49.680;8.608;2024-01-06T05:20:04;9.15;;;1.85;;
45540;SDS011;31265;49.680;8.608;2024-01-06T05:22:33;3.63;;;1.63;;
45540;SDS011;31265;49.680;8.608;2024-01-06T05:25:02;5.43;;;1.88;;
45540;SDS011;31265;49.680;8.608;2024-01-06T05:27:31;3.30;;;1.48;;
45540;SDS011;31265;49.680;8.608;2024-01-06T05:30:00;4.30;;;0.95;;
45540;SDS011;31265;49.680;8.608;2024-01-06T05:32:30;2.58;;;1.30;;
45540;SDS011;31265;49.680;8.608;2024-01-06T05:35:06;2.38;;;1.20;;
45540;SDS011;31265;49.680;8.608;2024-01-06T05:37:36;2.15;;;1.02;;
45540;SDS011;31265;49.680;8.608;2024-01-06T05:40:06;5.05;;;1.20;;
45540;SDS011;31265;49.680;8.608;2024-01-06T05:42:36;1.90;;;0.88;;
45540;SDS011;31265;49.680;8.608;2024-01-06T05:45:09;8.25;;;1.10;;
45540;SDS011;31265;49.680;8.608;2024-01-06T05:47:39;5.10;;;1.50;;
45540;SDS011;31265;49.680;8.608;2024-01-06T05:50:08;4.97;;;1.73;;
45540;SDS011;31265;49.680;8.608;2024-01-06T05:55:06;6.88;;;1.15;;
45540;SDS011;31265;49.680;8.608;2024-01-06T06:00:07;1.58;;;0.82;;
45540;SDS011;31265;49.680;8.608;2024-01-06T06:02:38;2.75;;;1.45;;
45540;SDS011;31265;49.680;8.608;2024-01-06T06:05:07;3.85;;;1.15;;
45540;SDS011;31265;49.680;8.608;2024-01-06T06:07:37;2.90;;;1.55;;
45540;SDS011;31265;49.680;8.608;2024-01-06T06:10:07;7.88;;;1.80;;
45540;SDS011;31265;49.680;8.608;2024-01-06T06:12:37;8.05;;;1.50;;
45540;SDS011;31265;49.680;8.608;2024-01-06T06:15:08;2.88;;;1.02;;
45540;SDS011;31265;49.680;8.608;2024-01-06T06:17:37;11.20;;;1.50;;
45540;SDS011;31265;49.680;8.608;2024-01-06T06:20:07;1.60;;;1.08;;
45540;SDS011;31265;49.680;8.608;2024-01-06T06:22:35;10.93;;;0.90;;
45540;SDS011;31265;49.680;8.608;2024-01-06T06:25:04;2.67;;;1.38;;
45540;SDS011;31265;49.680;8.608;2024-01-06T06:27:35;2.88;;;1.20;;
45540;SDS011;31265;49.680;8.608;2024-01-06T06:30:05;9.25;;;1.33;;
45540;SDS011;31265;49.680;8.608;2024-01-06T06:32:37;4.90;;;1.52;;
45540;SDS011;31265;49.680;8.608;2024-01-06T06:35:06;3.25;;;1.27;;
45540;SDS011;31265;49.680;8.608;2024-01-06T06:37:35;6.93;;;1.92;;
45540;SDS011;31265;49.680;8.608;2024-01-06T06:40:04;6.95;;;1.52;;
45540;SDS011;31265;49.680;8.608;2024-01-06T06:42:33;9.18;;;1.70;;
45540;SDS011;31265;49.680;8.608;2024-01-06T06:45:02;3.70;;;1.10;;
45540;SDS011;31265;49.680;8.608;2024-01-06T06:47:32;3.08;;;1.52;;
45540;SDS011;31265;49.680;8.608;2024-01-06T06:50:02;6.27;;;1.37;;
45540;SDS011;31265;49.680;8.608;2024-01-06T06:52:33;3.78;;;1.67;;
45540;SDS011;31265;49.680;8.608;2024-01-06T06:55:03;3.10;;;1.17;;
45540;SDS011;31265;49.680;8.608;2024-01-06T06:57:32;3.08;;;1.33;;
45540;SDS011;31265;49.680;8.608;2024-01-06T07:00:01;8.30;;;1.27;;
45540;SDS011;31265;49.680;8.608;2024-01-06T07:02:33;9.27;;;1.52;;
45540;SDS011;31265;49.680;8.608;2024-01-06T07:05:04;6.45;;;1.90;;
45540;SDS011;31265;49.680;8.608;2024-01-06T07:07:33;1.98;;;1.00;;
45540;SDS011;31265;49.680;8.608;2024-01-06T07:10:02;3.83;;;1.35;;
45540;SDS011;31265;49.680;8.608;2024-01-06T07:12:32;1.88;;;1.15;;
45540;SDS011;31265;49.680;8.608;2024-01-06T07:15:00;1.85;;;0.93;;
45540;SDS011;31265;49.680;8.608;2024-01-06T07:17:32;3.28;;;1.60;;
45540;SDS011;31265;49.680;8.608;2024-01-06T07:20:01;4.18;;;1.52;;
45540;SDS011;31265;49.680;8.608;2024-01-06T07:22:31;7.75;;;1.40;;
45540;SDS011;31265;49.680;8.608;2024-01-06T07:27:28;4.40;;;1.10;;
45540;SDS011;31265;49.680;8.608;2024-01-06T07:29:57;6.45;;;1.27;;
45540;SDS011;31265;49.680;8.608;2024-01-06T07:32:28;5.72;;;2.13;;
45540;SDS011;31265;49.680;8.608;2024-01-06T07:34:56;3.08;;;1.35;;
45540;SDS011;31265;49.680;8.608;2024-01-06T07:37:25;2.17;;;0.95;;
45540;SDS011;31265;49.680;8.608;2024-01-06T07:39:55;1.58;;;0.90;;
45540;SDS011;31265;49.680;8.608;2024-01-06T07:44:52;5.03;;;1.40;;
45540;SDS011;31265;49.680;8.608;2024-01-06T07:47:20;1.90;;;0.90;;
45540;SDS011;31265;49.680;8.608;2024-01-06T07:49:51;2.95;;;1.30;;
45540;SDS011;31265;49.680;8.608;2024-01-06T07:52:20;4.72;;;1.90;;
45540;SDS011;31265;49.680;8.608;2024-01-06T07:54:49;5.75;;;1.10;;
45540;SDS011;31265;49.680;8.608;2024-01-06T07:57:19;5.25;;;1.30;;
45540;SDS011;31265;49.680;8.608;2024-01-06T07:59:47;2.88;;;1.30;;
45540;SDS011;31265;49.680;8.608;2024-01-06T08:02:16;2.30;;;1.08;;
45540;SDS011;31265;49.680;8.608;2024-01-06T08:04:45;4.78;;;1.67;;
45540;SDS011;31265;49.680;8.608;2024-01-06T08:07:14;7.60;;;1.85;;
45540;SDS011;31265;49.680;8.608;2024-01-06T08:09:43;4.05;;;1.23;;
45540;SDS011;31265;49.680;8.608;2024-01-06T08:12:12;4.88;;;1.33;;
45540;SDS011;31265;49.680;8.608;2024-01-06T08:14:42;2.78;;;1.25;;
45540;SDS011;31265;49.680;8.608;2024-01-06T08:17:13;3.20;;;1.20;;
45540;SDS011;31265;49.680;8.608;2024-01-06T08:19:45;3.17;;;1.40;;
45540;SDS011;31265;49.680;8.608;2024-01-06T08:22:15;9.75;;;1.83;;
45540;SDS011;31265;49.680;8.608;2024-01-06T08:24:43;5.10;;;1.23;;
45540;SDS011;31265;49.680;8.608;2024-01-06T08:27:12;3.67;;;1.05;;
45540;SDS011;31265;49.680;8.608;2024-01-06T08:29:43;10.70;;;1.90;;
45540;SDS011;31265;49.680;8.608;2024-01-06T08:32:12;2.85;;;1.42;;
45540;SDS011;31265;49.680;8.608;2024-01-06T08:37:10;4.00;;;1.40;;
45540;SDS011;31265;49.680;8.608;2024-01-06T08:39:38;4.75;;;1.88;;
45540;SDS011;31265;49.680;8.608;2024-01-06T08:42:06;5.40;;;1.40;;
45540;SDS011;31265;49.680;8.608;2024-01-06T08:44:35;4.97;;;1.58;;
45540;SDS011;31265;49.680;8.608;2024-01-06T08:47:06;4.30;;;1.52;;
45540;SDS011;31265;49.680;8.608;2024-01-06T08:52:03;4.75;;;1.55;;
45540;SDS011;31265;49.680;8.608;2024-01-06T08:54:33;2.90;;;1.65;;
45540;SDS011;31265;49.680;8.608;2024-01-06T08:57:02;4.97;;;1.83;;
45540;SDS011;31265;49.680;8.608;2024-01-06T08:59:31;4.88;;;1.65;;
45540;SDS011;31265;49.680;8.608;2024-01-06T09:01:59;10.25;;;1.95;;
45540;SDS011;31265;49.680;8.608;2024-01-06T09:04:30;4.68;;;2.00;;
45540;SDS011;31265;49.680;8.608;2024-01-06T09:06:58;5.75;;;1.80;;
45540;SDS011;31265;49.680;8.608;2024-01-06T09:09:27;6.30;;;1.35;;
45540;SDS011;31265;49.680;8.608;2024-01-06T09:11:57;2.88;;;1.45;;
45540;SDS011;31265;49.680;8.608;2024-01-06T09:14:26;15.45;;;1.77;;
45540;SDS011;31265;49.680;8.608;2024-01-06T09:16:54;4.72;;;1.55;;
45540;SDS011;31265;49.680;8.608;2024-01-06T09:19:23;5.97;;;1.63;;
45540;SDS011;31265;49.680;8.608;2024-01-06T09:21:53;3.00;;;1.42;;
45540;SDS011;31265;49.680;8.608;2024-01-06T09:24:22;6.72;;;1.67;;
45540;SDS011;31265;49.680;8.608;2024-01-06T09:26:51;5.78;;;1.40;;
45540;SDS011;31265;49.680;8.608;2024-01-06T09:29:19;2.85;;;1.30;;
45540;SDS011;31265;49.680;8.608;2024-01-06T09:31:48;3.47;;;1.50;;
45540;SDS011;31265;49.680;8.608;2024-01-06T09:34:16;3.80;;;1.67;;
45540;SDS011;31265;49.680;8.608;2024-01-06T09:36:45;2.83;;;1.30;;
45540;SDS011;31265;49.680;8.608;2024-01-06T09:39:15;4.30;;;1.38;;
45540;SDS011;31265;49.680;8.608;2024-01-06T09:41:44;4.93;;;1.70;;
45540;SDS011;31265;49.680;8.608;2024-01-06T09:44:12;10.43;;;1.45;;
45540;SDS011;31265;49.680;8.608;2024-01-06T09:46:43;7.75;;;1.85;;
45540;SDS011;31265;49.680;8.608;2024-01-06T09:49:12;6.40;;;1.95;;
45540;SDS011;31265;49.680;8.608;2024-01-06T09:51:42;5.28;;;2.50;;
45540;SDS011;31265;49.680;8.608;2024-01-06T09:54:12;4.45;;;1.77;;
45540;SDS011;31265;49.680;8.608;2024-01-06T09:56:43;5.80;;;1.98;;
45540;SDS011;31265;49.680;8.608;2024-01-06T09:59:14;3.35;;;1.80;;
45540;SDS011;31265;49.680;8.608;2024-01-06T10:04:13;7.93;;;1.70;;
45540;SDS011;31265;49.680;8.608;2024-01-06T10:06:47;6.32;;;1.58;;
45540;SDS011;31265;49.680;8.608;2024-01-06T10:09:16;3.30;;;1.25;;
45540;SDS011;31265;49.680;8.608;2024-01-06T10:11:46;2.25;;;1.27;;
45540;SDS011;31265;49.680;8.608;2024-01-06T10:16:43;3.10;;;1.23;;
45540;SDS011;31265;49.680;8.608;2024-01-06T10:19:11;2.55;;;1.25;;
45540;SDS011;31265;49.680;8.608;2024-01-06T10:21:41;3.95;;;1.88;;
45540;SDS011;31265;49.680;8.608;2024-01-06T10:24:09;4.10;;;1.45;;
45540;SDS011;31265;49.680;8.608;2024-01-06T10:26:38;6.38;;;2.30;;
45540;SDS011;31265;49.680;8.608;2024-01-06T10:29:08;4.07;;;2.17;;
45540;SDS011;31265;49.680;8.608;2024-01-06T10:31:38;4.63;;;2.03;;
45540;SDS011;31265;49.680;8.608;2024-01-06T10:34:08;3.35;;;1.67;;
45540;SDS011;31265;49.680;8.608;2024-01-06T10:36:37;4.90;;;1.75;;
45540;SDS011;31265;49.680;8.608;2024-01-06T10:39:06;3.13;;;1.50;;
45540;SDS011;31265;49.680;8.608;2024-01-06T10:41:36;6.70;;;1.92;;
45540;SDS011;31265;49.680;8.608;2024-01-06T10:44:11;2.63;;;1.58;;
45540;SDS011;31265;49.680;8.608;2024-01-06T10:46:41;4.75;;;2.13;;
45540;SDS011;31265;49.680;8.608;2024-01-06T10:49:09;3.63;;;2.13;;
45540;SDS011;31265;49.680;8.608;2024-01-06T10:51:39;5.80;;;1.58;;
45540;SDS011;31265;49.680;8.608;2024-01-06T10:54:08;4.65;;;1.70;;
45540;SDS011;31265;49.680;8.608;2024-01-06T10:56:37;7.72;;;2.45;;
45540;SDS011;31265;49.680;8.608;2024-01-06T11:01:38;6.07;;;2.35;;
45540;SDS011;31265;49.680;8.608;2024-01-06T11:04:09;3.45;;;1.40;;
45540;SDS011;31265;49.680;8.608;2024-01-06T11:06:38;5.43;;;2.03;;
45540;SDS011;31265;49.680;8.608;2024-01-06T11:09:09;4.50;;;1.60;;
45540;SDS011;31265;49.680;8.608;2024-01-06T11:11:42;5.22;;;2.28;;
45540;SDS011;31265;49.680;8.608;2024-01-06T11:14:20;7.57;;;2.05;;
45540;SDS011;31265;49.680;8.608;2024-01-06T11:16:52;6.47;;;2.10;;
45540;SDS011;31265;49.680;8.608;2024-01-06T11:22:22;4.63;;;2.53;;
45540;SDS011;31265;49.680;8.608;2024-01-06T11:24:54;4.93;;;1.80;;
45540;SDS011;31265;49.680;8.608;2024-01-06T11:27:25;5.40;;;2.17;;
45540;SDS011;31265;49.680;8.608;2024-01-06T11:29:56;4.38;;;2.13;;
45540;SDS011;31265;49.680;8.608;2024-01-06T11:32:29;4.35;;;1.88;;
45540;SDS011;31265;49.680;8.608;2024-01-06T11:35:07;3.40;;;1.90;;
45540;SDS011;31265;49.680;8.608;2024-01-06T11:37:37;4.88;;;2.28;;
45540;SDS011;31265;49.680;8.608;2024-01-06T11:40:23;7.10;;;2.20;;
45540;SDS011;31265;49.680;8.608;2024-01-06T11:42:57;6.50;;;2.45;;
45540;SDS011;31265;49.680;8.608;2024-01-06T11:45:32;7.25;;;2.28;;
45540;SDS011;31265;49.680;8.608;2024-01-06T11:48:04;9.57;;;2.45;;
45540;SDS011;31265;49.680;8.608;2024-01-06T11:50:36;17.13;;;2.33;;
45540;SDS011;31265;49.680;8.608;2024-01-06T11:53:07;6.15;;;1.88;;
45540;SDS011;31265;49.680;8.608;2024-01-06T11:55:38;4.88;;;2.28;;
45540;SDS011;31265;49.680;8.608;2024-01-06T11:58:07;5.15;;;2.33;;
45540;SDS011;31265;49.680;8.608;2024-01-06T12:00:37;4.85;;;1.90;;
45540;SDS011;31265;49.680;8.608;2024-01-06T12:03:10;5.88;;;2.55;;
45540;SDS011;31265;49.680;8.608;2024-01-06T12:05:38;5.82;;;2.63;;
45540;SDS011;31265;49.680;8.608;2024-01-06T12:08:07;8.75;;;2.75;;
45540;SDS011;31265;49.680;8.608;2024-01-06T12:10:35;8.80;;;2.00;;
45540;SDS011;31265;49.680;8.608;2024-01-06T12:13:05;4.05;;;2.17;;
45540;SDS011;31265;49.680;8.608;2024-01-06T12:15:37;8.65;;;2.50;;
45540;SDS011;31265;49.680;8.608;2024-01-06T12:18:07;5.57;;;2.00;;
45540;SDS011;31265;49.680;8.608;2024-01-06T12:20:38;5.22;;;2.17;;
45540;SDS011;31265;49.680;8.608;2024-01-06T12:23:08;3.63;;;1.77;;
45540;SDS011;31265;49.680;8.608;2024-01-06T12:25:37;11.73;;;2.67;;
45540;SDS011;31265;49.680;8.608;2024-01-06T12:28:07;5.35;;;2.53;;
45540;SDS011;31265;49.680;8.608;2024-01-06T12:30:38;3.33;;;1.80;;
45540;SDS011;31265;49.680;8.608;2024-01-06T12:33:06;5.93;;;2.35;;
45540;SDS011;31265;49.680;8.608;2024-01-06T12:35:36;6.32;;;2.80;;
45540;SDS011;31265;49.680;8.608;2024-01-06T12:38:06;7.10;;;2.15;;
45540;SDS011;31265;49.680;8.608;2024-01-06T12:40:37;3.88;;;2.13;;
45540;SDS011;31265;49.680;8.608;2024-01-06T12:43:06;7.80;;;2.88;;
45540;SDS011;31265;49.680;8.608;2024-01-06T12:45:35;6.50;;;2.83;;
45540;SDS011;31265;49.680;8.608;2024-01-06T12:48:03;4.63;;;2.17;;
45540;SDS011;31265;49.680;8.608;2024-01-06T12:50:32;6.55;;;2.58;;
45540;SDS011;31265;49.680;8.608;2024-01-06T12:53:01;5.97;;;2.70;;
45540;SDS011;31265;49.680;8.608;2024-01-06T12:55:31;4.85;;;2.88;;
45540;SDS011;31265;49.680;8.608;2024-01-06T12:58:00;5.07;;;2.60;;
45540;SDS011;31265;49.680;8.608;2024-01-06T13:00:31;5.07;;;2.60;;
45540;SDS011;31265;49.680;8.608;2024-01-06T13:03:03;4.32;;;2.67;;
45540;SDS011;31265;49.680;8.608;2024-01-06T13:05:33;11.73;;;3.13;;
45540;SDS011;31265;49.680;8.608;2024-01-06T13:08:01;4.35;;;2.10;;
45540;SDS011;31265;49.680;8.608;2024-01-06T13:10:31;4.83;;;2.57;;
45540;SDS011;31265;49.680;8.608;2024-01-06T13:13:01;5.10;;;2.58;;
45540;SDS011;31265;49.680;8.608;2024-01-06T13:15:30;4.28;;;2.40;;
45540;SDS011;31265;49.680;8.608;2024-01-06T13:17:59;7.70;;;3.05;;
45540;SDS011;31265;49.680;8.608;2024-01-06T13:20:28;6.07;;;2.27;;
45540;SDS011;31265;49.680;8.608;2024-01-06T13:22:57;7.28;;;3.30;;
45540;SDS011;31265;49.680;8.608;2024-01-06T13:25:28;7.45;;;2.50;;
45540;SDS011;31265;49.680;8.608;2024-01-06T13:27:58;5.47;;;3.05;;
45540;SDS011;31265;49.680;8.608;2024-01-06T13:30:27;5.82;;;3.25;;
45540;SDS011;31265;49.680;8.608;2024-01-06T13:32:56;7.32;;;3.45;;
45540;SDS011;31265;49.680;8.608;2024-01-06T13:35:26;27.33;;;12.60;;
45540;SDS011;31265;49.680;8.608;2024-01-06T13:37:55;9.65;;;3.90;;
45540;SDS011;31265;49.680;8.608;2024-01-06T13:40:24;8.23;;;3.20;;
45540;SDS011;31265;49.680;8.608;2024-01-06T13:42:54;9.50;;;4.90;;
45540;SDS011;31265;49.680;8.608;2024-01-06T13:45:23;10.77;;;3.55;;
45540;SDS011;31265;49.680;8.608;2024-01-06T13:47:53;7.28;;;3.03;;
45540;SDS011;31265;49.680;8.608;2024-01-06T13:50:21;4.90;;;2.75;;
45540;SDS011;31265;49.680;8.608;2024-01-06T13:52:50;8.35;;;3.72;;
45540;SDS011;31265;49.680;8.608;2024-01-06T13:55:19;6.47;;;3.07;;
45540;SDS011;31265;49.680;8.608;2024-01-06T13:57:48;12.98;;;3.17;;
45540;SDS011;31265;49.680;8.608;2024-01-06T14:00:17;5.03;;;2.63;;
45540;SDS011;31265;49.680;8.608;2024-01-06T14:02:49;8.45;;;3.83;;
45540;SDS011;31265;49.680;8.608;2024-01-06T14:07:46;10.57;;;3.17;;
45540;SDS011;31265;49.680;8.608;2024-01-06T14:10:17;6.35;;;3.10;;
45540;SDS011;31265;49.680;8.608;2024-01-06T14:12:45;7.93;;;4.43;;
45540;SDS011;31265;49.680;8.608;2024-01-06T14:15:14;11.35;;;4.65;;
45540;SDS011;31265;49.680;8.608;2024-01-06T14:17:43;8.65;;;3.45;;
45540;SDS011;31265;49.680;8.608;2024-01-06T14:20:18;7.05;;;3.65;;
45540;SDS011;31265;49.680;8.608;2024-01-06T14:22:47;14.32;;;3.72;;
45540;SDS011;31265;49.680;8.608;2024-01-06T14:25:16;6.65;;;4.00;;
45540;SDS011;31265;49.680;8.608;2024-01-06T14:27:45;8.55;;;3.63;;
45540;SDS011;31265;49.680;8.608;2024-01-06T14:30:15;6.43;;;3.40;;
45540;SDS011;31265;49.680;8.608;2024-01-06T14:32:45;9.20;;;4.05;;
45540;SDS011;31265;49.680;8.608;2024-01-06T14:35:14;7.97;;;4.90;;
45540;SDS011;31265;49.680;8.608;2024-01-06T14:37:45;8.68;;;3.78;;
45540;SDS011;31265;49.680;8.608;2024-01-06T14:40:16;7.95;;;3.67;;
45540;SDS011;31265;49.680;8.608;2024-01-06T14:42:45;7.80;;;3.78;;
45540;SDS011;31265;49.680;8.608;2024-01-06T14:45:14;17.40;;;6.13;;
45540;SDS011;31265;49.680;8.608;2024-01-06T14:47:45;14.80;;;5.10;;
45540;SDS011;31265;49.680;8.608;2024-01-06T14:50:18;15.55;;;7.88;;
45540;SDS011;31265;49.680;8.608;2024-01-06T14:52:48;13.88;;;5.82;;
45540;SDS011;31265;49.680;8.608;2024-01-06T14:55:17;7.93;;;5.18;;
45540;SDS011;31265;49.680;8.608;2024-01-06T14:57:47;14.80;;;6.55;;
45540;SDS011;31265;49.680;8.608;2024-01-06T15:00:15;13.57;;;6.65;;
45540;SDS011;31265;49.680;8.608;2024-01-06T15:02:44;12.63;;;6.07;;
45540;SDS011;31265;49.680;8.608;2024-01-06T15:05:13;8.75;;;4.78;;
45540;SDS011;31265;49.680;8.608;2024-01-06T15:07:43;12.18;;;3.95;;
45540;SDS011;31265;49.680;8.608;2024-01-06T15:10:13;11.88;;;4.38;;
45540;SDS011;31265;49.680;8.608;2024-01-06T15:12:42;7.88;;;3.28;;
45540;SDS011;31265;49.680;8.608;2024-01-06T15:15:11;10.50;;;4.63;;
45540;SDS011;31265;49.680;8.608;2024-01-06T15:17:41;7.38;;;3.55;;
45540;SDS011;31265;49.680;8.608;2024-01-06T15:20:10;4.75;;;2.55;;
45540;SDS011;31265;49.680;8.608;2024-01-06T15:22:40;9.77;;;3.38;;
45540;SDS011;31265;49.680;8.608;2024-01-06T15:25:09;5.82;;;3.03;;
45540;SDS011;31265;49.680;8.608;2024-01-06T15:27:50;6.05;;;3.17;;
45540;SDS011;31265;49.680;8.608;2024-01-06T15:30:19;6.32;;;3.75;;
45540;SDS011;31265;49.680;8.608;2024-01-06T15:32:50;6.30;;;3.08;;
45540;SDS011;31265;49.680;8.608;2024-01-06T15:35:18;6.45;;;2.53;;
45540;SDS011;31265;49.680;8.608;2024-01-06T15:37:50;6.18;;;3.28;;
45540;SDS011;31265;49.680;8.608;2024-01-06T15:40:20;11.85;;;4.15;;
45540;SDS011;31265;49.680;8.608;2024-01-06T15:42:50;8.77;;;4.43;;